Piripa, Brazil
Current Conditions -  °F | °C
As of 2:00 PM on Saturday 25 Oct 2014 (Local Time) from SBQV Reporting Station
Scattered Clouds Scattered Clouds  
Wind Chill: 86°   Ceiling: Unl
Heat Index: 86°   Visibility: 6mi
Dew Point: 54°   Wind: 9mph
Humidity: 33%   Direction: 80°E
Pressure: 30.03"   Gusts: NA
Location:  14.94°S, 41.72°W
Report Text: SBQV 251700Z 08008KT 040V110 9999 SCT025 30/12 Q1017
Loading
Personal Weather Stations






























Interactive Weather Map
Tropical Storm Tracking
New forecast layout! Learn more

10-Day Weather Forecast

Advertisements
Track Severe Weather on mobile